Time;durP1;ratioP1;P1;durP2;ratioP2;P2;SDS_P1;SDS_P2;PMS_P1;PMS_P2;Temp;Humidity;BMP_temperature;BMP_pressure;BME280_temperature;BME280_humidity;BME280_pressure;Samples;Min_cycle;Max_cycle;Signal;HPM_P1;HPM_P2
2023/10/12 00:01:57;;;;;;;;;;;17.90;99.90;;;;;;8408720;28;20353;-71
2023/10/12 00:05:59;;;;;;;;;;;17.80;99.90;;;;;;8418942;28;19925;-70
2023/10/12 00:10:12;;;;;;;;;;;17.80;99.90;;;;;;8408312;28;19981;-71
2023/10/12 00:14:14;;;;;;;;;;;17.80;99.90;;;;;;8408642;28;19924;-70
2023/10/12 00:18:17;;;;;;;;;;;17.70;99.90;;;;;;8408311;28;20497;-71
2023/10/12 00:22:19;;;;;;;;;;;17.70;99.90;;;;;;8394626;28;19970;-71
2023/10/12 00:26:22;;;;;;;;;;;17.70;99.90;;;;;;8395762;28;19925;-70
2023/10/12 00:30:24;;;;;;;;;;;17.70;99.90;;;;;;8416389;28;20383;-70
2023/10/12 00:34:27;;;;;;;;;;;17.70;99.90;;;;;;8417754;28;19943;-70
2023/10/12 00:38:29;;;;;;;;;;;17.60;99.90;;;;;;8402585;28;19924;-70
2023/10/12 00:42:35;;;;;;;;;;;17.60;99.90;;;;;;8416756;28;19924;-71
2023/10/12 00:50:43;;;;;;;;;;;17.60;99.90;;;;;;8418140;28;19930;-70
2023/10/12 00:54:49;;;;;;;;;;;17.60;99.90;;;;;;8394707;28;19924;-70
2023/10/12 00:58:53;;;;;;;;;;;17.50;99.90;;;;;;8394487;28;19938;-70
2023/10/12 01:07:25;;;;;;;;;;;17.50;99.90;;;;;;8410562;28;20225;-70
2023/10/12 01:11:27;;;;;;;;;;;17.50;99.90;;;;;;8404508;28;19927;-70
2023/10/12 01:15:31;;;;;;;;;;;17.50;99.90;;;;;;8406060;28;19924;-70
2023/10/12 01:19:44;;;;;;;;;;;17.40;99.90;;;;;;8409513;28;20277;-69
2023/10/12 01:23:50;;;;;;;;;;;17.40;99.90;;;;;;8409381;28;20269;-70
2023/10/12 01:27:53;;;;;;;;;;;17.40;99.90;;;;;;8406901;28;19924;-70
2023/10/12 01:32:21;;;;;;;;;;;17.40;99.90;;;;;;8409573;28;19924;-70
2023/10/12 01:36:27;;;;;;;;;;;17.30;99.90;;;;;;8406483;28;20219;-70
2023/10/12 01:40:52;;;;;;;;;;;17.30;99.90;;;;;;8405125;28;20360;-70
2023/10/12 01:44:58;;;;;;;;;;;17.10;99.90;;;;;;8422630;28;19928;-70
2023/10/12 01:48:59;;;;;;;;;;;17.10;99.90;;;;;;8400757;28;19924;-70
2023/10/12 01:53:06;;;;;;;;;;;17.00;99.90;;;;;;8413401;28;20018;-70
2023/10/12 01:57:10;;;;;;;;;;;16.90;99.90;;;;;;8406990;28;19924;-70
2023/10/12 02:01:18;;;;;;;;;;;16.90;99.90;;;;;;8416093;28;19931;-70
2023/10/12 02:05:25;;;;;;;;;;;16.90;99.90;;;;;;8404038;28;20438;-70
2023/10/12 02:09:26;;;;;;;;;;;16.90;99.90;;;;;;8424096;28;19924;-70
2023/10/12 02:13:33;;;;;;;;;;;16.90;99.90;;;;;;8406976;28;19928;-70
2023/10/12 02:17:35;;;;;;;;;;;16.90;99.90;;;;;;8420582;28;20329;-70
2023/10/12 02:21:40;;;;;;;;;;;17.00;99.90;;;;;;8418366;28;19924;-70
2023/10/12 02:25:50;;;;;;;;;;;16.90;99.90;;;;;;8418590;28;19928;-70
2023/10/12 02:29:56;;;;;;;;;;;17.00;99.90;;;;;;8416390;28;19924;-71
2023/10/12 02:34:01;;;;;;;;;;;17.00;99.90;;;;;;8419688;28;19924;-70
2023/10/12 02:38:04;;;;;;;;;;;17.00;99.90;;;;;;8417747;28;19936;-70
2023/10/12 02:46:23;;;;;;;;;;;17.00;99.90;;;;;;8414220;28;19924;-70
2023/10/12 02:50:29;;;;;;;;;;;16.90;99.90;;;;;;8425287;28;19928;-70
2023/10/12 02:54:49;;;;;;;;;;;17.00;99.90;;;;;;8421554;28;19931;-70
2023/10/12 02:58:51;;;;;;;;;;;16.90;99.90;;;;;;8401519;28;19978;-70
2023/10/12 03:02:53;;;;;;;;;;;17.00;99.90;;;;;;8415186;28;19963;-70
2023/10/12 03:06:58;;;;;;;;;;;17.00;99.90;;;;;;8422418;28;20618;-70
2023/10/12 03:15:12;;;;;;;;;;;17.10;99.90;;;;;;8417709;28;19930;-70
2023/10/12 03:19:35;;;;;;;;;;;17.10;99.90;;;;;;8421806;28;19928;-71
2023/10/12 03:23:38;;;;;;;;;;;17.10;99.90;;;;;;8395853;28;19931;-70
2023/10/12 03:27:40;;;;;;;;;;;17.10;99.90;;;;;;8420139;28;20447;-70
2023/10/12 03:35:57;;;;;;;;;;;17.10;99.90;;;;;;8412974;28;20280;-70
2023/10/12 03:40:08;;;;;;;;;;;17.00;99.90;;;;;;8411516;28;19936;-70
2023/10/12 03:44:17;;;;;;;;;;;17.00;99.90;;;;;;8392527;28;19982;-70
2023/10/12 03:48:37;;;;;;;;;;;17.00;99.90;;;;;;8414283;28;19924;-70
2023/10/12 03:52:51;;;;;;;;;;;17.10;99.90;;;;;;8405773;28;20019;-70
2023/10/12 03:56:59;;;;;;;;;;;17.10;99.90;;;;;;8418702;28;19924;-70
2023/10/12 04:01:23;;;;;;;;;;;17.10;99.90;;;;;;8414917;28;19947;-70
2023/10/12 04:09:42;;;;;;;;;;;17.00;99.90;;;;;;8404589;28;20405;-70
2023/10/12 04:17:52;;;;;;;;;;;17.00;99.90;;;;;;8407124;28;19932;-70
2023/10/12 04:22:04;;;;;;;;;;;17.00;99.90;;;;;;8412042;28;19985;-70
2023/10/12 04:30:22;;;;;;;;;;;17.00;99.90;;;;;;8422204;28;20302;-70
2023/10/12 04:34:26;;;;;;;;;;;17.00;99.90;;;;;;8415500;28;19935;-70
2023/10/12 04:38:46;;;;;;;;;;;16.90;99.90;;;;;;8427393;28;19935;-70
2023/10/12 04:42:48;;;;;;;;;;;16.90;99.90;;;;;;8401002;28;19928;-70
2023/10/12 04:47:09;;;;;;;;;;;16.90;99.90;;;;;;8423812;28;20364;-70
2023/10/12 04:51:21;;;;;;;;;;;16.90;99.90;;;;;;8389116;28;19952;-70
2023/10/12 04:55:23;;;;;;;;;;;16.80;99.90;;;;;;8407610;28;19932;-70
2023/10/12 04:59:29;;;;;;;;;;;16.80;99.90;;;;;;8415193;28;20407;-70
2023/10/12 05:03:35;;;;;;;;;;;16.80;99.90;;;;;;8404710;28;19960;-70
2023/10/12 05:11:57;;;;;;;;;;;16.80;99.90;;;;;;8402516;28;20273;-71
2023/10/12 05:16:06;;;;;;;;;;;16.80;99.90;;;;;;8414434;28;20370;-70
2023/10/12 05:20:09;;;;;;;;;;;16.80;99.90;;;;;;8408049;28;19970;-70
2023/10/12 05:24:11;;;;;;;;;;;16.80;99.90;;;;;;8391071;28;19932;-70
2023/10/12 05:28:15;;;;;;;;;;;16.80;99.90;;;;;;8424114;28;19934;-70
2023/10/12 05:36:18;;;;;;;;;;;16.70;99.90;;;;;;8418786;28;19924;-70
2023/10/12 05:40:21;;;;;;;;;;;16.60;99.90;;;;;;8417588;28;20395;-70
2023/10/12 05:44:26;;;;;;;;;;;16.40;99.90;;;;;;8398868;28;19928;-70
2023/10/12 05:48:28;;;;;;;;;;;16.30;99.90;;;;;;8411879;28;19932;-70
2023/10/12 05:52:34;;;;;;;;;;;16.30;99.90;;;;;;8419965;28;20443;-70
2023/10/12 05:56:36;;;;;;;;;;;16.20;99.90;;;;;;8394022;28;20214;-70
2023/10/12 06:00:45;;;;;;;;;;;16.20;99.90;;;;;;8420206;28;20345;-70
2023/10/12 06:04:47;;;;;;;;;;;16.10;99.90;;;;;;8416453;28;19924;-70
2023/10/12 06:08:52;;;;;;;;;;;16.10;99.90;;;;;;8400809;28;19985;-70
2023/10/12 06:12:56;;;;;;;;;;;16.10;99.90;;;;;;8414354;28;20271;-70
2023/10/12 06:17:02;;;;;;;;;;;16.00;99.90;;;;;;8416509;28;19932;-70
2023/10/12 06:21:07;;;;;;;;;;;16.00;99.90;;;;;;8420012;28;20345;-70
2023/10/12 06:25:11;;;;;;;;;;;16.00;99.90;;;;;;8426647;28;19946;-70
2023/10/12 06:29:24;;;;;;;;;;;15.90;99.90;;;;;;8412326;28;19934;-70
2023/10/12 06:33:26;;;;;;;;;;;15.90;99.90;;;;;;8404299;28;19928;-70
2023/10/12 06:45:54;;;;;;;;;;;15.80;99.90;;;;;;8418170;28;19928;-70
2023/10/12 06:50:00;;;;;;;;;;;15.80;99.90;;;;;;8409345;28;19924;-70
2023/10/12 06:54:31;;;;;;;;;;;15.80;99.90;;;;;;8404678;28;20240;-70
2023/10/12 06:58:38;;;;;;;;;;;15.90;99.90;;;;;;8420220;28;20397;-70
2023/10/12 07:02:45;;;;;;;;;;;15.90;99.90;;;;;;8407539;28;19933;-70
2023/10/12 07:06:59;;;;;;;;;;;15.90;99.90;;;;;;8419766;28;19928;-70
2023/10/12 07:11:04;;;;;;;;;;;15.90;99.90;;;;;;8413849;28;19935;-70
2023/10/12 07:15:11;;;;;;;;;;;15.90;99.90;;;;;;8410827;28;19931;-70
2023/10/12 07:19:12;;;;;;;;;;;15.90;99.90;;;;;;8428356;28;19931;-70
2023/10/12 07:23:20;;;;;;;;;;;15.90;99.90;;;;;;8419246;28;19924;-70
2023/10/12 07:27:25;;;;;;;;;;;15.90;99.90;;;;;;8401231;28;20379;-70
2023/10/12 07:31:41;;;;;;;;;;;15.90;99.90;;;;;;8420003;28;19936;-70
2023/10/12 07:35:43;;;;;;;;;;;15.90;99.90;;;;;;8423819;28;19925;-70
2023/10/12 07:39:45;;;;;;;;;;;15.80;99.90;;;;;;8425833;28;19931;-70
2023/10/12 07:43:47;;;;;;;;;;;15.90;99.90;;;;;;8420495;28;19928;-70
2023/10/12 07:47:58;;;;;;;;;;;15.80;99.90;;;;;;8427139;28;20002;-70
2023/10/12 07:52:09;;;;;;;;;;;15.80;99.90;;;;;;8412725;28;20365;-70
2023/10/12 07:56:17;;;;;;;;;;;15.80;99.90;;;;;;8426454;28;20372;-70
2023/10/12 08:00:34;;;;;;;;;;;15.80;99.90;;;;;;8426147;28;19973;-70
2023/10/12 08:04:39;;;;;;;;;;;15.80;99.90;;;;;;8411913;28;20351;-70
2023/10/12 08:08:40;;;;;;;;;;;15.80;99.90;;;;;;8413686;28;19931;-70
2023/10/12 08:12:45;;;;;;;;;;;15.80;99.90;;;;;;8416442;28;19927;-70
2023/10/12 08:17:24;;;;;;;;;;;15.80;99.90;;;;;;8398280;28;19981;-70
2023/10/12 08:25:27;;;;;;;;;;;15.70;99.90;;;;;;8416336;28;19924;-70
2023/10/12 08:33:49;;;;;;;;;;;15.60;99.90;;;;;;8410363;28;20288;-70
2023/10/12 08:38:09;;;;;;;;;;;15.70;99.90;;;;;;8427398;28;20391;-70
2023/10/12 08:50:49;;;;;;;;;;;15.60;99.90;;;;;;8424631;28;20433;-70
2023/10/12 08:54:52;;;;;;;;;;;15.60;99.90;;;;;;8410185;28;20395;-70
2023/10/12 08:58:57;;;;;;;;;;;15.60;99.90;;;;;;8415415;28;20172;-70
2023/10/12 09:03:00;;;;;;;;;;;15.60;99.90;;;;;;8394622;28;19924;-70
2023/10/12 09:07:03;;;;;;;;;;;15.60;99.90;;;;;;8423413;28;19932;-70
2023/10/12 09:15:12;;;;;;;;;;;15.60;99.90;;;;;;8414182;28;20330;-70
2023/10/12 09:19:28;;;;;;;;;;;15.60;99.90;;;;;;8423126;28;19939;-70
2023/10/12 09:27:49;;;;;;;;;;;15.70;99.90;;;;;;8417538;28;19932;-70
2023/10/12 09:32:12;;;;;;;;;;;15.70;99.90;;;;;;8422671;28;20521;-70
2023/10/12 09:36:14;;;;;;;;;;;15.70;99.90;;;;;;8396991;28;19924;-70
2023/10/12 09:40:27;;;;;;;;;;;15.70;99.90;;;;;;8412227;28;19928;-70
2023/10/12 09:44:37;;;;;;;;;;;15.70;99.90;;;;;;8410281;28;19967;-70
2023/10/12 09:48:40;;;;;;;;;;;15.70;99.90;;;;;;8424472;28;19924;-70
2023/10/12 09:52:57;;;;;;;;;;;15.70;99.90;;;;;;8398678;28;19935;-70
2023/10/12 09:57:04;;;;;;;;;;;15.70;99.90;;;;;;8406294;28;20310;-70
2023/10/12 10:01:15;;;;;;;;;;;15.70;99.90;;;;;;8421447;28;19931;-70
2023/10/12 10:14:00;;;;;;;;;;;15.60;99.90;;;;;;8408541;28;19924;-70
2023/10/12 10:18:05;;;;;;;;;;;15.60;99.90;;;;;;8324720;28;19928;-70
2023/10/12 10:22:10;;;;;;;;;;;15.60;99.90;;;;;;8424366;28;19959;-70
2023/10/12 10:26:19;;;;;;;;;;;15.60;99.90;;;;;;8425256;28;20276;-70
2023/10/12 10:30:25;;;;;;;;;;;15.60;99.90;;;;;;8429208;28;20238;-70
2023/10/12 10:34:27;;;;;;;;;;;15.60;99.90;;;;;;8404946;28;20382;-70
2023/10/12 10:38:32;;;;;;;;;;;15.60;99.90;;;;;;8423151;28;20350;-70
2023/10/12 10:42:36;;;;;;;;;;;15.60;99.90;;;;;;8398543;28;19947;-70
2023/10/12 10:46:43;;;;;;;;;;;15.70;99.90;;;;;;8425356;28;19932;-70
2023/10/12 10:50:54;;;;;;;;;;;15.70;99.90;;;;;;8429214;28;20296;-70
2023/10/12 10:54:56;;;;;;;;;;;15.70;99.90;;;;;;8416831;28;19931;-70
2023/10/12 10:58:59;;;;;;;;;;;15.70;99.90;;;;;;8428905;28;20320;-70
2023/10/12 11:03:03;;;;;;;;;;;15.70;99.90;;;;;;8418343;28;19924;-71
2023/10/12 11:07:12;;;;;;;;;;;15.70;99.90;;;;;;8420848;28;20185;-70
2023/10/12 11:11:25;;;;;;;;;;;15.70;99.90;;;;;;8396482;28;19931;-70
2023/10/12 11:15:27;;;;;;;;;;;15.70;99.90;;;;;;8418918;28;19979;-70
2023/10/12 11:19:33;;;;;;;;;;;15.80;99.90;;;;;;8429856;28;19971;-70
2023/10/12 11:23:35;;;;;;;;;;;15.80;99.90;;;;;;8419408;28;19943;-70
2023/10/12 11:27:37;;;;;;;;;;;15.80;99.90;;;;;;8411713;28;19928;-70
2023/10/12 11:31:39;;;;;;;;;;;15.90;99.90;;;;;;8427993;28;19946;-70
2023/10/12 11:35:43;;;;;;;;;;;15.90;99.90;;;;;;8410116;28;19928;-70
2023/10/12 11:39:46;;;;;;;;;;;15.90;99.90;;;;;;8424665;28;20378;-70
2023/10/12 11:43:54;;;;;;;;;;;15.90;99.90;;;;;;8418046;28;19986;-70
2023/10/12 11:47:55;;;;;;;;;;;15.90;99.90;;;;;;8404083;28;19924;-70
2023/10/12 11:51:57;;;;;;;;;;;16.00;99.90;;;;;;8404188;28;19967;-71
2023/10/12 11:56:07;;;;;;;;;;;15.90;99.90;;;;;;8411716;28;19924;-71
2023/10/12 12:00:21;;;;;;;;;;;15.90;99.90;;;;;;8427202;28;19924;-71
2023/10/12 12:04:31;;;;;;;;;;;16.00;99.90;;;;;;8413127;28;19950;-70
2023/10/12 12:08:35;;;;;;;;;;;16.00;99.90;;;;;;8412466;28;19928;-70
2023/10/12 12:12:38;;;;;;;;;;;16.00;99.90;;;;;;8395711;28;20016;-70
2023/10/12 12:16:40;;;;;;;;;;;16.00;99.90;;;;;;8420075;28;19947;-71
2023/10/12 12:20:44;;;;;;;;;;;16.00;99.90;;;;;;8412509;28;19938;-71
2023/10/12 12:24:45;;;;;;;;;;;16.00;99.90;;;;;;8427373;28;19924;-71
2023/10/12 12:28:50;;;;;;;;;;;16.00;99.90;;;;;;8401308;28;19973;-71
2023/10/12 12:32:52;;;;;;;;;;;16.00;99.90;;;;;;8410896;28;20399;-71
2023/10/12 12:36:54;;;;;;;;;;;16.10;99.90;;;;;;8409338;28;19935;-71
2023/10/12 12:40:57;;;;;;;;;;;16.10;99.90;;;;;;8416784;28;19991;-71
2023/10/12 12:44:59;;;;;;;;;;;16.10;99.90;;;;;;8408474;28;20424;-71
2023/10/12 12:49:00;;;;;;;;;;;16.10;99.90;;;;;;8415332;28;20371;-71
2023/10/12 12:53:05;;;;;;;;;;;16.20;99.90;;;;;;8412007;28;19928;-70
2023/10/12 13:07:17;;;;;;;;;;;16.20;99.90;;;;;;8406721;28;19918;-70
2023/10/12 13:11:19;;;;;;;;;;;16.20;99.90;;;;;;8412827;28;19924;-70
2023/10/12 13:15:23;;;;;;;;;;;16.30;99.90;;;;;;8393982;28;19928;-70
2023/10/12 13:19:24;;;;;;;;;;;16.30;99.90;;;;;;8401300;28;19924;-70
2023/10/12 13:23:26;;;;;;;;;;;16.30;99.90;;;;;;8418803;28;19928;-70
2023/10/12 13:27:29;;;;;;;;;;;16.30;99.90;;;;;;8403348;28;20025;-70
2023/10/12 13:31:30;;;;;;;;;;;16.30;99.90;;;;;;8417583;28;19928;-71
2023/10/12 13:35:37;;;;;;;;;;;16.30;99.90;;;;;;8413335;28;20319;-71
2023/10/12 13:39:38;;;;;;;;;;;16.20;99.90;;;;;;8403398;28;19930;-70
2023/10/12 13:43:40;;;;;;;;;;;16.30;99.90;;;;;;8404467;28;19963;-70
2023/10/12 13:47:42;;;;;;;;;;;16.30;99.90;;;;;;8409369;28;20014;-71
2023/10/12 13:51:47;;;;;;;;;;;16.30;99.90;;;;;;8396001;28;19924;-70
2023/10/12 13:55:50;;;;;;;;;;;16.30;99.90;;;;;;8421803;28;19924;-71
2023/10/12 13:59:51;;;;;;;;;;;16.30;99.90;;;;;;8408500;28;19932;-70
2023/10/12 14:03:57;;;;;;;;;;;16.30;99.90;;;;;;8415532;28;20263;-70
2023/10/12 14:07:59;;;;;;;;;;;16.30;99.90;;;;;;8394872;28;19928;-70
2023/10/12 14:12:01;;;;;;;;;;;16.30;99.90;;;;;;8394613;28;20604;-70
2023/10/12 14:16:06;;;;;;;;;;;16.30;99.90;;;;;;8415132;28;20379;-71
2023/10/12 14:20:08;;;;;;;;;;;16.50;99.90;;;;;;8407869;28;19931;-71
2023/10/12 14:24:10;;;;;;;;;;;16.60;99.90;;;;;;8413642;28;20354;-71
2023/10/12 14:28:16;;;;;;;;;;;16.70;99.90;;;;;;8390617;28;19928;-70
2023/10/12 14:32:17;;;;;;;;;;;16.70;99.90;;;;;;8366590;28;19924;-70
2023/10/12 14:36:19;;;;;;;;;;;16.70;99.90;;;;;;8380530;28;19932;-70
2023/10/12 14:40:28;;;;;;;;;;;16.70;99.90;;;;;;8370873;28;19928;-71
2023/10/12 14:44:30;;;;;;;;;;;16.70;99.90;;;;;;8388893;28;19932;-70
2023/10/12 14:48:32;;;;;;;;;;;16.70;99.90;;;;;;8377225;28;19925;-71
2023/10/12 14:52:40;;;;;;;;;;;16.80;99.90;;;;;;8404958;28;19950;-70
2023/10/12 14:56:42;;;;;;;;;;;16.70;99.90;;;;;;8393972;28;20307;-71
2023/10/12 15:00:44;;;;;;;;;;;16.70;99.90;;;;;;8383683;28;19932;-70
2023/10/12 15:04:46;;;;;;;;;;;16.70;99.90;;;;;;8384001;28;20353;-70
2023/10/12 15:08:48;;;;;;;;;;;16.70;99.90;;;;;;8390539;28;19935;-70
2023/10/12 15:12:50;;;;;;;;;;;16.70;99.90;;;;;;8390061;28;20290;-70
2023/10/12 15:16:52;;;;;;;;;;;16.80;99.90;;;;;;8374671;28;19960;-70
2023/10/12 15:20:55;;;;;;;;;;;16.80;99.90;;;;;;8365915;28;20296;-71
2023/10/12 15:25:09;;;;;;;;;;;16.80;99.90;;;;;;8383742;28;19933;-70
2023/10/12 15:29:11;;;;;;;;;;;16.80;99.90;;;;;;8386627;28;19978;-71
2023/10/12 15:33:12;;;;;;;;;;;16.80;99.90;;;;;;8387547;28;19948;-71
2023/10/12 15:37:14;;;;;;;;;;;16.70;99.90;;;;;;8386692;28;20313;-71
2023/10/12 15:41:16;;;;;;;;;;;16.80;99.90;;;;;;8386218;28;19970;-71
2023/10/12 15:45:18;;;;;;;;;;;16.70;99.90;;;;;;8385631;28;19951;-71
2023/10/12 15:49:20;;;;;;;;;;;16.70;99.90;;;;;;8368944;28;19932;-71
2023/10/12 15:53:24;;;;;;;;;;;16.70;99.90;;;;;;8370021;28;19939;-71
2023/10/12 15:57:26;;;;;;;;;;;16.70;99.90;;;;;;8386823;28;19929;-71
2023/10/12 16:01:27;;;;;;;;;;;16.70;99.90;;;;;;8373534;28;20380;-71
2023/10/12 16:05:29;;;;;;;;;;;16.80;99.90;;;;;;8370625;28;19950;-71
2023/10/12 16:09:31;;;;;;;;;;;16.80;99.90;;;;;;8384453;28;20345;-71
2023/10/12 16:13:36;;;;;;;;;;;16.80;99.90;;;;;;8383513;28;20375;-71
2023/10/12 16:17:37;;;;;;;;;;;16.80;99.90;;;;;;8390009;28;19931;-71
2023/10/12 16:21:39;;;;;;;;;;;16.90;99.90;;;;;;8384408;28;19932;-71
2023/10/12 16:25:41;;;;;;;;;;;16.90;99.90;;;;;;8389082;28;19932;-71
2023/10/12 16:29:43;;;;;;;;;;;16.90;99.90;;;;;;8389070;28;19936;-71
2023/10/12 16:33:59;;;;;;;;;;;16.90;99.90;;;;;;8399705;28;20427;-71
2023/10/12 16:38:01;;;;;;;;;;;16.90;99.90;;;;;;8385264;28;19971;-70
2023/10/12 16:42:04;;;;;;;;;;;16.90;99.90;;;;;;8383780;28;19928;-71
2023/10/12 16:46:06;;;;;;;;;;;16.90;99.90;;;;;;8386564;28;20300;-71
2023/10/12 16:50:12;;;;;;;;;;;16.90;99.90;;;;;;8382693;28;19931;-71
2023/10/12 16:54:14;;;;;;;;;;;17.00;99.90;;;;;;8386778;28;19931;-70
2023/10/12 16:58:17;;;;;;;;;;;17.00;99.90;;;;;;8381526;28;19929;-70
2023/10/12 17:02:19;;;;;;;;;;;17.00;99.90;;;;;;8385116;28;20417;-70
2023/10/12 17:06:21;;;;;;;;;;;17.00;99.90;;;;;;8366306;28;19928;-70
2023/10/12 17:10:28;;;;;;;;;;;17.00;99.90;;;;;;8374850;28;19939;-70
2023/10/12 17:14:30;;;;;;;;;;;17.00;99.90;;;;;;8381987;28;19939;-70
2023/10/12 17:18:34;;;;;;;;;;;17.00;99.90;;;;;;8369787;28;20390;-71
2023/10/12 17:22:37;;;;;;;;;;;17.00;99.90;;;;;;8390266;28;19925;-70
2023/10/12 17:26:40;;;;;;;;;;;17.00;99.90;;;;;;8371115;28;20348;-71
2023/10/12 17:30:46;;;;;;;;;;;17.10;99.90;;;;;;8382924;28;19924;-71
2023/10/12 17:34:48;;;;;;;;;;;17.10;99.90;;;;;;8396039;28;19964;-70
2023/10/12 17:38:52;;;;;;;;;;;17.10;99.90;;;;;;8370986;28;20357;-70
2023/10/12 17:42:53;;;;;;;;;;;17.10;99.90;;;;;;8382954;28;19991;-71
2023/10/12 17:46:55;;;;;;;;;;;17.10;99.90;;;;;;8382181;28;19924;-71
2023/10/12 17:56:06;;;;;;;;;;;17.10;99.90;;;;;;8325682;28;19987;-71
2023/10/12 18:00:09;;;;;;;;;;;17.20;99.90;;;;;;8351142;28;19966;-71
2023/10/12 18:04:11;;;;;;;;;;;17.20;99.90;;;;;;8317238;28;20392;-71
2023/10/12 18:08:13;;;;;;;;;;;17.20;99.90;;;;;;8321346;28;19928;-71
2023/10/12 18:12:15;;;;;;;;;;;17.20;99.90;;;;;;8319350;28;19979;-70
2023/10/12 18:16:16;;;;;;;;;;;17.20;99.90;;;;;;8326660;28;20380;-71
2023/10/12 18:20:18;;;;;;;;;;;17.30;99.90;;;;;;8328473;28;20136;-70
2023/10/12 18:24:22;;;;;;;;;;;17.30;99.90;;;;;;8325389;28;20293;-71
2023/10/12 18:43:38;;;;;;;;;;;17.40;99.90;;;;;;8324058;28;20411;-70
2023/10/12 18:47:39;;;;;;;;;;;17.40;99.90;;;;;;8322296;28;19925;-71
2023/10/12 18:51:41;;;;;;;;;;;17.40;99.90;;;;;;8322252;28;19925;-71
2023/10/12 18:55:43;;;;;;;;;;;17.40;99.90;;;;;;8389712;28;19943;-70
2023/10/12 18:59:47;;;;;;;;;;;17.40;99.90;;;;;;8367152;28;19939;-71
2023/10/12 19:03:50;;;;;;;;;;;17.40;99.90;;;;;;8389107;28;19932;-71
2023/10/12 19:07:52;;;;;;;;;;;17.40;99.90;;;;;;8393379;28;20264;-71
2023/10/12 19:11:54;;;;;;;;;;;17.40;99.90;;;;;;8387957;28;19932;-70
2023/10/12 19:15:56;;;;;;;;;;;17.40;99.90;;;;;;8384373;28;19931;-71
2023/10/12 19:19:57;;;;;;;;;;;17.40;99.90;;;;;;8387434;28;19972;-71
2023/10/12 19:23:59;;;;;;;;;;;17.50;99.90;;;;;;8387055;28;19939;-70
2023/10/12 19:28:01;;;;;;;;;;;17.50;99.90;;;;;;8387453;28;19959;-71
2023/10/12 19:32:03;;;;;;;;;;;17.50;99.90;;;;;;8388869;28;19925;-71
2023/10/12 19:36:08;;;;;;;;;;;17.50;99.90;;;;;;8374668;28;19943;-70
2023/10/12 19:40:15;;;;;;;;;;;17.50;99.90;;;;;;8394374;28;19928;-71
2023/10/12 19:44:19;;;;;;;;;;;17.50;99.90;;;;;;8387673;28;20298;-70
2023/10/12 19:48:21;;;;;;;;;;;17.50;99.90;;;;;;8385210;28;19928;-70
2023/10/12 19:52:24;;;;;;;;;;;17.50;99.90;;;;;;8388672;28;19944;-70
2023/10/12 19:56:25;;;;;;;;;;;17.50;99.90;;;;;;8400724;28;19974;-71
2023/10/12 20:00:35;;;;;;;;;;;17.50;99.90;;;;;;8368081;28;19924;-71
2023/10/12 20:04:41;;;;;;;;;;;17.50;99.90;;;;;;8377078;28;19925;-71
2023/10/12 20:08:48;;;;;;;;;;;17.50;99.90;;;;;;8367513;28;19978;-71
2023/10/12 20:12:50;;;;;;;;;;;17.60;99.90;;;;;;8366586;28;19983;-71
2023/10/12 20:16:52;;;;;;;;;;;17.60;99.90;;;;;;8384132;28;20508;-71
2023/10/12 20:20:56;;;;;;;;;;;17.60;99.90;;;;;;8399487;28;19932;-71
2023/10/12 20:24:58;;;;;;;;;;;17.60;99.90;;;;;;8385257;28;19972;-71
2023/10/12 20:29:00;;;;;;;;;;;17.60;99.90;;;;;;8383151;28;19924;-71
2023/10/12 20:33:03;;;;;;;;;;;17.60;99.90;;;;;;8386383;28;19982;-71
2023/10/12 20:37:05;;;;;;;;;;;17.60;99.90;;;;;;8368040;28;19932;-71
2023/10/12 20:41:07;;;;;;;;;;;17.60;99.90;;;;;;8384312;28;19928;-71
2023/10/12 20:45:11;;;;;;;;;;;17.60;99.90;;;;;;8381861;28;20297;-71
2023/10/12 20:49:13;;;;;;;;;;;17.60;99.90;;;;;;8383533;28;20394;-71
2023/10/12 20:53:15;;;;;;;;;;;17.60;99.90;;;;;;8365712;28;19929;-71
2023/10/12 20:57:17;;;;;;;;;;;17.70;99.90;;;;;;8363433;28;19932;-71
2023/10/12 21:01:24;;;;;;;;;;;17.60;99.90;;;;;;8371669;28;20287;-71
2023/10/12 21:05:29;;;;;;;;;;;17.70;99.90;;;;;;8399479;28;19970;-71
2023/10/12 21:09:30;;;;;;;;;;;17.60;99.90;;;;;;8403762;28;19927;-71
2023/10/12 21:13:32;;;;;;;;;;;17.70;99.90;;;;;;8397885;28;20291;-70
2023/10/12 21:17:39;;;;;;;;;;;17.70;99.90;;;;;;8401294;28;19984;-71
2023/10/12 21:21:41;;;;;;;;;;;17.70;99.90;;;;;;8385671;28;19928;-70
2023/10/12 21:25:45;;;;;;;;;;;17.70;99.90;;;;;;8407634;28;19949;-71
2023/10/12 21:29:49;;;;;;;;;;;17.70;99.90;;;;;;8403469;28;20437;-71
2023/10/12 21:33:53;;;;;;;;;;;17.70;99.90;;;;;;8411182;28;19970;-71
2023/10/12 21:37:54;;;;;;;;;;;17.70;99.90;;;;;;8391327;28;20390;-71
2023/10/12 21:41:56;;;;;;;;;;;17.70;99.90;;;;;;8399517;28;20444;-70
2023/10/12 21:46:00;;;;;;;;;;;17.70;99.90;;;;;;8406872;28;20251;-71
2023/10/12 21:50:02;;;;;;;;;;;17.70;99.90;;;;;;8402684;28;19977;-71
2023/10/12 21:54:05;;;;;;;;;;;17.70;99.90;;;;;;8412235;28;20383;-71
2023/10/12 21:58:06;;;;;;;;;;;17.70;99.90;;;;;;8401968;28;20371;-71
2023/10/12 22:02:12;;;;;;;;;;;17.70;99.90;;;;;;8414799;28;19924;-71
2023/10/12 22:06:19;;;;;;;;;;;17.70;99.90;;;;;;8397598;28;19978;-71
2023/10/12 22:10:22;;;;;;;;;;;17.60;99.90;;;;;;8397351;28;19928;-71
2023/10/12 22:14:49;;;;;;;;;;;17.60;99.90;;;;;;8405254;28;19925;-71
2023/10/12 22:18:46;;;;;;;;;;;17.60;99.90;;;;;;8399558;28;19985;-71
2023/10/12 22:22:47;;;;;;;;;;;17.60;99.90;;;;;;8404588;28;20373;-71
2023/10/12 22:26:50;;;;;;;;;;;17.60;99.90;;;;;;8378838;28;19935;-71
2023/10/12 22:30:53;;;;;;;;;;;17.60;99.90;;;;;;8394927;28;20429;-71
2023/10/12 22:34:54;;;;;;;;;;;17.60;99.90;;;;;;8381420;28;19925;-71
2023/10/12 22:38:56;;;;;;;;;;;17.60;99.90;;;;;;8392188;28;20395;-71
2023/10/12 22:42:57;;;;;;;;;;;17.60;99.90;;;;;;8416938;28;19924;-71
2023/10/12 22:47:00;;;;;;;;;;;17.60;99.90;;;;;;8404350;28;19928;-71
2023/10/12 22:51:02;;;;;;;;;;;17.60;99.90;;;;;;8397187;28;19986;-71
2023/10/12 22:55:05;;;;;;;;;;;17.60;99.90;;;;;;8402070;28;19928;-71
2023/10/12 22:59:07;;;;;;;;;;;17.60;99.90;;;;;;8416520;28;20384;-71
2023/10/12 23:03:08;;;;;;;;;;;17.60;99.90;;;;;;8415211;28;19924;-71
2023/10/12 23:07:10;;;;;;;;;;;17.60;99.90;;;;;;8388613;28;19924;-71
2023/10/12 23:11:18;;;;;;;;;;;17.60;99.90;;;;;;8404484;28;19924;-70
2023/10/12 23:15:20;;;;;;;;;;;17.60;99.90;;;;;;8382368;28;19924;-71
2023/10/12 23:19:36;;;;;;;;;;;17.60;99.90;;;;;;8390844;28;19982;-71
2023/10/12 23:23:38;;;;;;;;;;;17.60;99.90;;;;;;8407962;28;19939;-71
2023/10/12 23:27:42;;;;;;;;;;;17.60;99.90;;;;;;8386502;28;20426;-71
2023/10/12 23:31:44;;;;;;;;;;;17.60;99.90;;;;;;8411043;28;19924;-71
2023/10/12 23:35:51;;;;;;;;;;;17.60;99.90;;;;;;8390862;28;20398;-71
2023/10/12 23:39:55;;;;;;;;;;;17.60;99.90;;;;;;8382313;28;19978;-71
2023/10/12 23:44:00;;;;;;;;;;;17.60;99.90;;;;;;8394550;28;19924;-71
2023/10/12 23:48:09;;;;;;;;;;;17.60;99.90;;;;;;8407789;28;19935;-71
2023/10/12 23:52:27;;;;;;;;;;;17.60;99.90;;;;;;8398726;28;19939;-71
2023/10/12 23:56:28;;;;;;;;;;;17.60;99.90;;;;;;8416699;27;20396;-71
